Time;durP1;ratioP1;P1;durP2;ratioP2;P2;SDS_P1;SDS_P2;PMS_P1;PMS_P2;Temp;Humidity;BMP_temperature;BMP_pressure;BME280_temperature;BME280_humidity;BME280_pressure;Samples;Min_cycle;Max_cycle;Signal;HPM_P1;HPM_P2
2021/04/26 00:00:16;;;;;;;7.55;6.15;;;;;;;;;;5098888;28;20020;-83
2021/04/26 00:02:42;;;;;;;5.35;4.32;;;;;;;;;;5098572;28;20032;-83
2021/04/26 00:05:09;;;;;;;4.10;3.60;;;;;;;;;;5098618;28;20431;-83
2021/04/26 00:07:35;;;;;;;4.30;3.65;;;;;;;;;;5100673;28;20028;-83
2021/04/26 00:10:01;;;;;;;4.22;3.28;;;;;;;;;;5080887;28;20070;-83
2021/04/26 00:12:27;;;;;;;4.15;3.03;;;;;;;;;;5097464;28;20024;-83
2021/04/26 00:14:54;;;;;;;3.75;3.10;;;;;;;;;;5097982;28;20020;-83
2021/04/26 00:17:20;;;;;;;6.30;3.05;;;;;;;;;;5080126;28;20016;-83
2021/04/26 00:19:46;;;;;;;7.20;3.30;;;;;;;;;;5080690;28;20085;-83
2021/04/26 00:22:12;;;;;;;5.00;3.00;;;;;;;;;;5080884;28;20032;-83
2021/04/26 00:24:39;;;;;;;5.07;3.08;;;;;;;;;;5099113;28;20020;-83
2021/04/26 00:27:06;;;;;;;4.45;3.08;;;;;;;;;;5079959;28;20100;-83
2021/04/26 00:29:32;;;;;;;3.90;3.13;;;;;;;;;;5079372;28;20031;-83
2021/04/26 00:31:58;;;;;;;4.65;3.28;;;;;;;;;;5096908;28;20047;-83
2021/04/26 00:34:24;;;;;;;6.00;3.10;;;;;;;;;;5079802;28;20073;-83
2021/04/26 00:36:50;;;;;;;4.13;2.72;;;;;;;;;;5106277;28;20050;-83
2021/04/26 00:39:17;;;;;;;4.28;2.80;;;;;;;;;;5099927;28;20028;-83
2021/04/26 00:41:43;;;;;;;6.63;3.08;;;;;;;;;;5117869;28;20518;-82
2021/04/26 00:44:09;;;;;;;4.88;3.25;;;;;;;;;;5119043;28;20023;-83
2021/04/26 00:46:35;;;;;;;6.90;2.75;;;;;;;;;;5099844;28;20031;-83
2021/04/26 00:49:01;;;;;;;4.32;2.80;;;;;;;;;;5100172;28;20096;-83
2021/04/26 00:51:27;;;;;;;3.95;2.63;;;;;;;;;;5119275;28;20031;-83
2021/04/26 00:53:54;;;;;;;3.28;2.90;;;;;;;;;;5119388;28;20444;-83
2021/04/26 00:56:20;;;;;;;5.32;2.72;;;;;;;;;;5119257;28;20049;-83
2021/04/26 00:58:46;;;;;;;5.45;3.00;;;;;;;;;;5099275;28;20045;-83
2021/04/26 01:01:13;;;;;;;7.82;2.90;;;;;;;;;;5118879;28;20065;-84
2021/04/26 01:03:39;;;;;;;3.42;2.83;;;;;;;;;;5119744;28;20031;-84
2021/04/26 01:06:05;;;;;;;6.22;2.75;;;;;;;;;;5119138;28;20494;-84
2021/04/26 01:08:31;;;;;;;4.07;2.58;;;;;;;;;;5101248;28;20024;-84
2021/04/26 01:10:58;;;;;;;5.45;3.30;;;;;;;;;;5120093;28;20114;-84
2021/04/26 01:13:32;;;;;;;5.20;2.90;;;;;;;;;;5101210;28;20051;-84
2021/04/26 01:15:58;;;;;;;5.10;2.63;;;;;;;;;;5103101;28;20043;-84
2021/04/26 01:18:50;;;;;;;3.30;2.83;;;;;;;;;;5120626;28;20069;-84
2021/04/26 01:21:35;;;;;;;3.90;2.58;;;;;;;;;;5096736;28;20036;-84
2021/04/26 01:24:11;;;;;;;3.05;2.50;;;;;;;;;;5124062;28;20040;-84
2021/04/26 01:26:40;;;;;;;3.72;2.80;;;;;;;;;;5125411;28;20514;-84
2021/04/26 01:29:15;;;;;;;3.83;2.90;;;;;;;;;;5124243;28;20051;-84
2021/04/26 01:31:52;;;;;;;4.32;2.88;;;;;;;;;;5126414;28;20031;-84
2021/04/26 01:34:18;;;;;;;2.90;2.60;;;;;;;;;;5126662;28;20075;-84
2021/04/26 01:36:44;;;;;;;4.15;2.90;;;;;;;;;;5126612;28;20054;-84
2021/04/26 01:39:11;;;;;;;5.60;2.80;;;;;;;;;;5126677;28;20024;-84
2021/04/26 01:41:37;;;;;;;4.28;2.90;;;;;;;;;;5105494;28;20019;-84
2021/04/26 01:44:04;;;;;;;5.32;2.92;;;;;;;;;;5122435;28;20047;-85
2021/04/26 01:46:30;;;;;;;6.47;2.63;;;;;;;;;;5124446;28;20042;-84
2021/04/26 01:48:58;;;;;;;8.25;3.15;;;;;;;;;;5106298;28;20081;-84
2021/04/26 01:51:24;;;;;;;4.10;2.80;;;;;;;;;;5124546;28;20411;-84
2021/04/26 01:53:50;;;;;;;3.38;2.58;;;;;;;;;;5124204;28;20027;-84
2021/04/26 01:56:17;;;;;;;4.80;2.45;;;;;;;;;;5106018;28;20087;-84
2021/04/26 01:58:44;;;;;;;3.28;2.60;;;;;;;;;;5125718;28;20102;-84
2021/04/26 02:01:14;;;;;;;3.83;2.30;;;;;;;;;;5125445;28;20027;-84
2021/04/26 02:03:42;;;;;;;3.80;2.42;;;;;;;;;;5123447;28;20538;-84
2021/04/26 02:06:09;;;;;;;4.03;2.47;;;;;;;;;;5122480;28;20019;-84
2021/04/26 02:08:35;;;;;;;2.85;2.50;;;;;;;;;;5104650;28;20035;-84
2021/04/26 02:11:02;;;;;;;3.25;2.60;;;;;;;;;;5123575;28;20048;-84
2021/04/26 02:13:29;;;;;;;3.67;2.80;;;;;;;;;;5123484;28;20031;-84
2021/04/26 02:15:55;;;;;;;3.92;2.78;;;;;;;;;;5123034;28;20111;-84
2021/04/26 02:18:22;;;;;;;2.85;2.60;;;;;;;;;;5123586;28;20114;-84
2021/04/26 02:20:48;;;;;;;4.72;2.70;;;;;;;;;;5124261;28;20493;-84
2021/04/26 02:23:15;;;;;;;3.60;3.00;;;;;;;;;;5124208;28;20050;-84
2021/04/26 02:25:41;;;;;;;4.93;2.90;;;;;;;;;;5124065;28;20031;-84
2021/04/26 02:28:07;;;;;;;4.45;2.85;;;;;;;;;;5124673;28;20027;-84
2021/04/26 02:30:33;;;;;;;5.55;3.30;;;;;;;;;;5123993;28;20066;-84
2021/04/26 02:32:59;;;;;;;3.45;2.78;;;;;;;;;;5122736;28;20030;-84
2021/04/26 02:35:35;;;;;;;5.38;3.00;;;;;;;;;;5104895;28;20089;-84
2021/04/26 02:38:28;;;;;;;5.63;3.00;;;;;;;;;;5089173;27;20059;-84
2021/04/26 02:40:57;;;;;;;3.97;3.28;;;;;;;;;;5082920;28;20100;-84
2021/04/26 02:43:24;;;;;;;4.38;3.08;;;;;;;;;;5105969;28;20036;-84
2021/04/26 02:45:52;;;;;;;4.25;2.63;;;;;;;;;;5105098;28;20024;-84
2021/04/26 02:48:20;;;;;;;5.13;2.67;;;;;;;;;;5086645;28;20031;-84
2021/04/26 02:50:46;;;;;;;3.53;2.75;;;;;;;;;;5086838;28;20099;-84
2021/04/26 02:53:13;;;;;;;4.35;2.83;;;;;;;;;;5105090;28;20020;-84
2021/04/26 02:55:40;;;;;;;4.68;2.80;;;;;;;;;;5105091;28;20104;-84
2021/04/26 02:58:06;;;;;;;6.05;3.28;;;;;;;;;;5104005;28;20099;-84
2021/04/26 03:00:32;;;;;;;5.95;2.90;;;;;;;;;;5084974;28;20035;-84
2021/04/26 03:02:59;;;;;;;4.55;2.40;;;;;;;;;;5102794;28;20069;-84
2021/04/26 03:05:26;;;;;;;3.40;2.75;;;;;;;;;;5104117;28;20054;-84
2021/04/26 03:07:52;;;;;;;3.75;2.80;;;;;;;;;;5103762;28;20028;-84
2021/04/26 03:10:19;;;;;;;5.07;2.55;;;;;;;;;;5086287;28;20060;-84
2021/04/26 03:12:48;;;;;;;3.20;2.47;;;;;;;;;;5104643;28;20027;-84
2021/04/26 03:15:17;;;;;;;3.22;2.60;;;;;;;;;;5086026;28;20035;-84
2021/04/26 03:17:43;;;;;;;3.67;2.40;;;;;;;;;;5104404;28;20027;-84
2021/04/26 03:20:11;;;;;;;3.63;2.55;;;;;;;;;;5085935;28;20045;-84
2021/04/26 03:22:38;;;;;;;3.42;2.60;;;;;;;;;;5104283;28;20024;-84
2021/04/26 03:25:05;;;;;;;6.60;2.60;;;;;;;;;;5085514;28;20038;-84
2021/04/26 03:27:32;;;;;;;3.17;2.58;;;;;;;;;;5077883;28;20053;-84
2021/04/26 03:29:59;;;;;;;5.25;2.53;;;;;;;;;;5085624;28;20108;-84
2021/04/26 03:32:26;;;;;;;5.35;2.75;;;;;;;;;;5102321;28;20032;-84
2021/04/26 03:34:52;;;;;;;12.00;2.90;;;;;;;;;;5104193;28;20044;-85
2021/04/26 03:37:19;;;;;;;6.85;2.60;;;;;;;;;;5115307;28;20499;-85
2021/04/26 03:39:46;;;;;;;3.88;2.42;;;;;;;;;;5123507;28;20015;-84
2021/04/26 03:42:12;;;;;;;3.90;2.35;;;;;;;;;;5104380;28;20034;-84
2021/04/26 03:44:38;;;;;;;5.35;2.33;;;;;;;;;;5122919;28;20387;-84
2021/04/26 03:47:05;;;;;;;4.28;2.15;;;;;;;;;;5122800;28;20031;-84
2021/04/26 03:49:31;;;;;;;3.80;2.47;;;;;;;;;;5122820;28;20072;-84
2021/04/26 03:51:57;;;;;;;5.88;2.70;;;;;;;;;;5122232;28;20053;-84
2021/04/26 03:54:24;;;;;;;2.75;2.42;;;;;;;;;;5121994;28;20518;-84
2021/04/26 03:56:50;;;;;;;4.22;2.47;;;;;;;;;;5106515;28;20050;-84
2021/04/26 03:59:16;;;;;;;8.85;2.38;;;;;;;;;;5106204;28;20486;-84
2021/04/26 04:01:42;;;;;;;6.55;2.30;;;;;;;;;;5103732;28;20024;-85
2021/04/26 04:04:08;;;;;;;4.55;2.42;;;;;;;;;;5123021;28;20024;-84
2021/04/26 04:06:34;;;;;;;4.28;2.45;;;;;;;;;;5122181;28;20024;-84
2021/04/26 04:09:01;;;;;;;2.78;2.03;;;;;;;;;;5122365;28;20473;-84
2021/04/26 04:11:28;;;;;;;5.85;2.25;;;;;;;;;;5122318;28;20020;-84
2021/04/26 04:13:54;;;;;;;5.63;2.22;;;;;;;;;;5103221;28;20043;-84
2021/04/26 04:16:20;;;;;;;3.28;2.58;;;;;;;;;;5122150;28;20137;-84
2021/04/26 04:18:47;;;;;;;8.27;2.58;;;;;;;;;;5122251;28;20080;-84
2021/04/26 04:21:13;;;;;;;6.40;2.67;;;;;;;;;;5105439;28;20023;-84
2021/04/26 04:23:39;;;;;;;4.65;2.30;;;;;;;;;;5104691;28;20438;-84
2021/04/26 04:26:05;;;;;;;6.13;2.63;;;;;;;;;;5124027;28;20034;-84
2021/04/26 04:28:32;;;;;;;6.50;2.13;;;;;;;;;;5124224;28;20027;-84
2021/04/26 04:30:59;;;;;;;4.65;2.33;;;;;;;;;;5123848;28;20027;-84
2021/04/26 04:33:25;;;;;;;3.05;2.10;;;;;;;;;;5104403;28;20027;-84
2021/04/26 04:35:51;;;;;;;3.20;2.10;;;;;;;;;;5106728;28;20020;-84
2021/04/26 04:38:17;;;;;;;3.10;2.60;;;;;;;;;;5104432;28;20040;-85
2021/04/26 04:40:43;;;;;;;5.15;2.85;;;;;;;;;;5105415;28;20027;-85
2021/04/26 04:43:09;;;;;;;7.50;2.53;;;;;;;;;;5104366;28;20055;-84
2021/04/26 04:45:35;;;;;;;5.32;2.40;;;;;;;;;;5122979;28;20441;-84
2021/04/26 04:48:02;;;;;;;5.82;2.50;;;;;;;;;;5123245;28;20077;-84
2021/04/26 04:50:30;;;;;;;8.60;2.45;;;;;;;;;;5122299;28;20024;-84
2021/04/26 04:52:57;;;;;;;6.25;2.63;;;;;;;;;;5122888;28;20024;-84
2021/04/26 04:55:23;;;;;;;5.53;2.85;;;;;;;;;;5123463;28;20030;-84
2021/04/26 04:57:49;;;;;;;8.25;3.00;;;;;;;;;;5107716;28;20031;-84
2021/04/26 05:00:16;;;;;;;7.28;3.20;;;;;;;;;;5126236;28;20106;-84
2021/04/26 05:02:42;;;;;;;8.48;3.20;;;;;;;;;;5107190;28;20420;-84
2021/04/26 05:05:08;;;;;;;4.50;3.00;;;;;;;;;;5125599;28;20046;-84
2021/04/26 05:07:35;;;;;;;7.05;2.80;;;;;;;;;;5107333;28;20100;-84
2021/04/26 05:10:01;;;;;;;5.35;2.83;;;;;;;;;;5127029;28;20027;-84
2021/04/26 05:12:27;;;;;;;6.20;3.05;;;;;;;;;;5107174;28;20039;-84
2021/04/26 05:14:53;;;;;;;7.28;2.90;;;;;;;;;;5107490;28;20491;-84
2021/04/26 05:17:19;;;;;;;14.52;3.28;;;;;;;;;;5108178;28;20110;-84
2021/04/26 05:19:45;;;;;;;8.63;3.03;;;;;;;;;;5107230;28;20024;-84
2021/04/26 05:22:11;;;;;;;12.02;2.90;;;;;;;;;;5125324;28;20159;-84
2021/04/26 05:24:38;;;;;;;11.38;3.08;;;;;;;;;;5106937;28;20016;-85
2021/04/26 05:27:04;;;;;;;8.48;2.90;;;;;;;;;;5126093;28;20031;-85
2021/04/26 05:29:30;;;;;;;8.25;2.67;;;;;;;;;;5125617;28;20020;-84
2021/04/26 05:31:56;;;;;;;16.48;3.47;;;;;;;;;;5105817;28;20444;-84
2021/04/26 05:34:22;;;;;;;8.32;3.13;;;;;;;;;;5106865;28;20047;-85
2021/04/26 05:36:49;;;;;;;13.30;3.28;;;;;;;;;;5126807;28;20100;-85
2021/04/26 05:39:15;;;;;;;9.70;2.60;;;;;;;;;;5126111;28;20019;-84
2021/04/26 05:41:41;;;;;;;9.23;7.03;;;;;;;;;;5126280;28;20422;-84
2021/04/26 05:44:07;;;;;;;12.35;3.80;;;;;;;;;;5106645;28;20046;-84
2021/04/26 05:46:33;;;;;;;5.13;3.05;;;;;;;;;;5125912;28;20055;-85
2021/04/26 05:48:59;;;;;;;7.97;3.00;;;;;;;;;;5124927;28;20509;-84
2021/04/26 05:51:25;;;;;;;5.50;3.20;;;;;;;;;;5125993;28;20027;-84
2021/04/26 05:53:51;;;;;;;8.20;2.75;;;;;;;;;;5124763;28;20031;-84
2021/04/26 05:56:17;;;;;;;8.50;2.92;;;;;;;;;;5125785;28;20031;-84
2021/04/26 05:58:43;;;;;;;6.45;3.08;;;;;;;;;;5107276;28;20034;-84
2021/04/26 06:01:10;;;;;;;7.82;3.13;;;;;;;;;;5125779;28;20486;-84
2021/04/26 06:03:36;;;;;;;8.45;3.75;;;;;;;;;;5124696;28;20035;-84
2021/04/26 06:06:02;;;;;;;8.52;3.17;;;;;;;;;;5125262;28;20054;-84
2021/04/26 06:08:29;;;;;;;5.55;2.90;;;;;;;;;;5125214;28;20031;-84
2021/04/26 06:10:55;;;;;;;6.82;2.92;;;;;;;;;;5125676;28;20046;-84
2021/04/26 06:13:21;;;;;;;7.22;3.28;;;;;;;;;;5105725;28;20534;-84
2021/04/26 06:15:47;;;;;;;10.75;3.38;;;;;;;;;;5105730;28;20083;-85
2021/04/26 06:18:13;;;;;;;7.47;3.50;;;;;;;;;;5123967;28;20035;-85
2021/04/26 06:20:40;;;;;;;8.48;3.45;;;;;;;;;;5124133;28;20023;-85
2021/04/26 06:23:06;;;;;;;9.75;3.40;;;;;;;;;;5124110;28;20024;-84
2021/04/26 06:25:35;;;;;;;11.27;3.63;;;;;;;;;;5104823;28;20043;-84
2021/04/26 06:28:01;;;;;;;17.02;3.65;;;;;;;;;;5105441;28;20392;-84
2021/04/26 06:30:27;;;;;;;20.65;3.70;;;;;;;;;;5105387;28;20031;-84
2021/04/26 06:32:53;;;;;;;12.02;3.42;;;;;;;;;;5105435;28;20080;-84
2021/04/26 06:35:19;;;;;;;8.13;3.80;;;;;;;;;;5123732;28;20011;-84
2021/04/26 06:37:46;;;;;;;15.20;3.95;;;;;;;;;;5123394;28;20043;-84
2021/04/26 06:40:12;;;;;;;10.07;3.40;;;;;;;;;;5123969;28;20521;-85
2021/04/26 06:42:38;;;;;;;11.95;3.63;;;;;;;;;;5106211;28;20114;-84
2021/04/26 06:45:05;;;;;;;7.00;3.47;;;;;;;;;;5120010;28;20479;-80
2021/04/26 06:47:31;;;;;;;8.93;3.45;;;;;;;;;;5114228;28;20032;-79
2021/04/26 06:49:57;;;;;;;6.80;3.72;;;;;;;;;;5117531;28;20356;-79
2021/04/26 06:52:24;;;;;;;10.02;3.95;;;;;;;;;;5110385;28;20051;-80
2021/04/26 06:54:50;;;;;;;10.48;3.72;;;;;;;;;;5113141;27;20095;-80
2021/04/26 06:57:16;;;;;;;9.30;3.72;;;;;;;;;;5117297;28;20034;-79
2021/04/26 06:59:44;;;;;;;19.17;4.53;;;;;;;;;;5113093;28;20034;-80
2021/04/26 07:02:12;;;;;;;7.90;3.72;;;;;;;;;;5085736;28;20160;-79
2021/04/26 07:04:38;;;;;;;7.65;3.85;;;;;;;;;;5106640;27;20027;-81
2021/04/26 07:07:05;;;;;;;6.95;3.90;;;;;;;;;;5091006;28;20057;-86
2021/04/26 07:09:31;;;;;;;8.43;4.05;;;;;;;;;;5096646;28;20033;-81
2021/04/26 07:11:58;;;;;;;14.68;4.00;;;;;;;;;;5095923;28;20459;-81
2021/04/26 07:14:25;;;;;;;10.68;3.78;;;;;;;;;;5087121;28;20020;-77
2021/04/26 07:16:51;;;;;;;9.50;3.95;;;;;;;;;;5100891;28;20489;-78
2021/04/26 07:19:18;;;;;;;9.43;3.78;;;;;;;;;;5111927;27;20026;-84
2021/04/26 07:21:44;;;;;;;7.68;4.45;;;;;;;;;;5101346;28;20051;-83
2021/04/26 07:24:10;;;;;;;9.85;4.40;;;;;;;;;;5091475;28;20044;-83
2021/04/26 07:26:37;;;;;;;12.90;4.00;;;;;;;;;;5110655;28;20110;-83
2021/04/26 07:29:03;;;;;;;9.27;4.30;;;;;;;;;;5107944;28;20024;-84
2021/04/26 07:31:32;;;;;;;11.27;3.60;;;;;;;;;;5111935;28;20079;-82
2021/04/26 07:33:58;;;;;;;16.92;3.80;;;;;;;;;;5106286;28;20020;-80
2021/04/26 07:36:25;;;;;;;13.98;3.80;;;;;;;;;;5097980;28;20038;-84
2021/04/26 07:38:51;;;;;;;14.38;3.35;;;;;;;;;;5101313;28;20476;-80
2021/04/26 07:41:17;;;;;;;10.13;3.67;;;;;;;;;;5112736;28;20027;-80
2021/04/26 07:43:43;;;;;;;7.72;3.10;;;;;;;;;;5101265;28;20124;-79
2021/04/26 07:46:09;;;;;;;6.63;3.70;;;;;;;;;;5101702;28;20066;-79
2021/04/26 07:48:37;;;;;;;5.95;3.40;;;;;;;;;;5104134;27;20031;-79
2021/04/26 07:51:03;;;;;;;11.38;4.03;;;;;;;;;;5103482;28;20028;-79
2021/04/26 07:53:30;;;;;;;13.45;4.00;;;;;;;;;;5112279;28;20542;-79
2021/04/26 07:55:57;;;;;;;7.25;3.92;;;;;;;;;;5091428;28;20024;-78
2021/04/26 07:58:23;;;;;;;13.90;3.88;;;;;;;;;;5094330;28;20347;-81
2021/04/26 08:00:49;;;;;;;7.28;3.25;;;;;;;;;;5116705;28;20034;-82
2021/04/26 08:03:16;;;;;;;7.07;3.35;;;;;;;;;;5097133;28;20023;-83
2021/04/26 08:05:43;;;;;;;7.60;3.60;;;;;;;;;;5089730;28;20047;-79
2021/04/26 08:08:09;;;;;;;9.15;3.55;;;;;;;;;;5097896;28;20027;-80
2021/04/26 08:10:35;;;;;;;13.05;3.53;;;;;;;;;;5096569;28;20050;-82
2021/04/26 08:13:02;;;;;;;8.20;3.42;;;;;;;;;;5105642;28;20499;-79
2021/04/26 08:15:28;;;;;;;11.48;3.78;;;;;;;;;;5089303;27;20031;-82
2021/04/26 08:17:54;;;;;;;8.93;3.78;;;;;;;;;;5119641;28;20039;-81
2021/04/26 08:20:20;;;;;;;8.13;3.80;;;;;;;;;;5106178;28;20038;-82
2021/04/26 08:22:47;;;;;;;12.57;3.70;;;;;;;;;;5104690;28;20042;-84
2021/04/26 08:25:13;;;;;;;7.22;3.42;;;;;;;;;;5097395;28;20021;-82
2021/04/26 08:27:39;;;;;;;12.05;4.80;;;;;;;;;;5114610;28;20031;-84
2021/04/26 08:30:06;;;;;;;13.10;3.67;;;;;;;;;;5083556;28;20499;-82
2021/04/26 08:32:33;;;;;;;12.88;3.42;;;;;;;;;;5097489;28;20111;-81
2021/04/26 08:35:00;;;;;;;11.77;3.88;;;;;;;;;;5114036;27;20030;-83
2021/04/26 08:37:26;;;;;;;25.55;4.53;;;;;;;;;;5091735;28;20457;-82
2021/04/26 08:43:14;;;;;;;5.43;3.10;;;;;;;;;;5072402;28;20036;-82
2021/04/26 08:45:41;;;;;;;8.35;3.22;;;;;;;;;;5097438;28;20039;-81
2021/04/26 08:48:07;;;;;;;5.70;3.40;;;;;;;;;;5084064;28;20059;-79
2021/04/26 08:50:33;;;;;;;10.63;2.78;;;;;;;;;;5094800;28;20503;-81
2021/04/26 08:52:59;;;;;;;7.15;3.38;;;;;;;;;;5104775;28;20057;-83
2021/04/26 08:55:26;;;;;;;8.50;3.22;;;;;;;;;;5110752;28;20042;-80
2021/04/26 08:57:53;;;;;;;10.65;3.53;;;;;;;;;;5098622;27;20077;-81
2021/04/26 09:00:20;;;;;;;7.07;3.22;;;;;;;;;;5127337;27;20034;-81
2021/04/26 09:02:51;;;;;;;7.57;3.22;;;;;;;;;;5126002;27;20405;-83
2021/04/26 09:05:22;;;;;;;6.43;3.70;;;;;;;;;;5104667;28;20020;-82
2021/04/26 09:07:49;;;;;;;5.57;2.70;;;;;;;;;;5088425;28;20044;-80
2021/04/26 09:10:16;;;;;;;8.40;3.15;;;;;;;;;;5112622;27;20023;-81
2021/04/26 09:12:42;;;;;;;7.65;3.50;;;;;;;;;;5090248;28;20035;-83
2021/04/26 09:15:08;;;;;;;4.15;2.90;;;;;;;;;;5118132;28;20500;-81
2021/04/26 09:17:35;;;;;;;5.35;2.70;;;;;;;;;;5090530;28;20089;-83
2021/04/26 09:20:04;;;;;;;5.55;2.30;;;;;;;;;;5082033;28;20098;-80
2021/04/26 09:22:42;;;;;;;7.40;2.40;;;;;;;;;;5093685;28;20035;-82
2021/04/26 09:25:23;;;;;;;6.93;2.40;;;;;;;;;;5091118;28;20102;-80
2021/04/26 09:28:10;;;;;;;6.90;2.30;;;;;;;;;;5100256;28;20035;-81
2021/04/26 09:30:41;;;;;;;4.65;1.85;;;;;;;;;;5081247;28;20032;-82
2021/04/26 09:33:14;;;;;;;3.83;1.83;;;;;;;;;;5083114;28;20034;-81
2021/04/26 09:35:40;;;;;;;6.53;2.03;;;;;;;;;;5118385;27;20012;-85
2021/04/26 09:38:25;;;;;;;8.10;2.63;;;;;;;;;;5115210;27;20036;-83
2021/04/26 09:41:11;;;;;;;5.95;2.65;;;;;;;;;;5112207;27;20024;-82
2021/04/26 09:43:39;;;;;;;6.28;3.13;;;;;;;;;;5092033;28;20023;-81
2021/04/26 09:46:05;;;;;;;4.45;2.50;;;;;;;;;;5110311;27;20157;-83
2021/04/26 09:48:32;;;;;;;5.72;2.40;;;;;;;;;;5115648;27;20083;-85
2021/04/26 09:50:58;;;;;;;2.50;2.00;;;;;;;;;;5123329;27;20042;-84
2021/04/26 09:53:35;;;;;;;6.05;2.67;;;;;;;;;;5124592;27;20055;-83
2021/04/26 09:56:11;;;;;;;4.00;2.50;;;;;;;;;;5114642;27;20019;-86
2021/04/26 09:58:44;;;;;;;7.50;2.40;;;;;;;;;;5093896;28;20035;-82
2021/04/26 10:01:11;;;;;;;6.63;2.50;;;;;;;;;;5113856;27;20024;-84
2021/04/26 10:03:37;;;;;;;8.00;2.63;;;;;;;;;;5099955;27;20031;-83
2021/04/26 10:06:04;;;;;;;4.82;1.92;;;;;;;;;;5098775;28;20024;-83
2021/04/26 10:08:30;;;;;;;5.47;1.98;;;;;;;;;;5111925;27;20032;-81
2021/04/26 10:10:57;;;;;;;7.25;2.30;;;;;;;;;;5110350;27;20047;-82
2021/04/26 10:13:24;;;;;;;4.65;2.80;;;;;;;;;;5127565;27;20052;-81
2021/04/26 10:15:58;;;;;;;3.75;2.10;;;;;;;;;;5119995;27;20047;-81
2021/04/26 10:18:38;;;;;;;6.00;2.10;;;;;;;;;;5113368;27;20561;-84
2021/04/26 10:21:05;;;;;;;4.68;1.92;;;;;;;;;;5100273;28;20288;-83
2021/04/26 10:23:38;;;;;;;3.28;2.17;;;;;;;;;;5092697;28;20521;-79
2021/04/26 10:26:05;;;;;;;4.85;2.80;;;;;;;;;;5085273;27;20023;-83
2021/04/26 10:28:32;;;;;;;4.93;2.20;;;;;;;;;;5094085;28;20108;-82
2021/04/26 10:31:00;;;;;;;8.38;2.80;;;;;;;;;;5116273;27;20313;-84
2021/04/26 10:33:26;;;;;;;4.85;2.10;;;;;;;;;;5119901;27;20043;-83
2021/04/26 10:35:52;;;;;;;4.97;2.10;;;;;;;;;;5113277;27;20015;-80
2021/04/26 10:38:34;;;;;;;7.35;2.10;;;;;;;;;;5113088;27;20040;-83
2021/04/26 10:41:01;;;;;;;4.07;2.20;;;;;;;;;;5099209;28;20027;-80
2021/04/26 10:43:28;;;;;;;8.07;2.55;;;;;;;;;;5105197;27;20051;-78
2021/04/26 10:46:13;;;;;;;4.57;1.90;;;;;;;;;;5108498;27;20032;-79
2021/04/26 10:48:39;;;;;;;5.30;1.83;;;;;;;;;;5118767;27;20035;-79
2021/04/26 10:51:20;;;;;;;4.78;2.50;;;;;;;;;;5107891;27;20521;-79
2021/04/26 10:53:47;;;;;;;3.38;2.08;;;;;;;;;;5110313;27;20398;-76
2021/04/26 10:56:23;;;;;;;5.65;2.67;;;;;;;;;;5094037;28;20421;-76
2021/04/26 10:58:49;;;;;;;2.85;2.03;;;;;;;;;;5116346;27;20466;-77
2021/04/26 11:01:19;;;;;;;7.18;2.35;;;;;;;;;;5133542;27;20012;-76
2021/04/26 11:03:46;;;;;;;3.90;1.67;;;;;;;;;;5102605;27;20031;-77
2021/04/26 11:06:13;;;;;;;5.38;1.80;;;;;;;;;;5089150;28;20110;-77
2021/04/26 11:08:47;;;;;;;2.22;1.75;;;;;;;;;;5102568;27;20110;-78
2021/04/26 11:11:17;;;;;;;5.38;2.85;;;;;;;;;;5093730;28;20027;-78
2021/04/26 11:13:48;;;;;;;3.83;1.75;;;;;;;;;;5106142;27;20031;-83
2021/04/26 11:16:22;;;;;;;4.80;2.17;;;;;;;;;;5102645;27;20089;-81
2021/04/26 11:18:57;;;;;;;5.30;3.25;;;;;;;;;;5104992;28;20035;-81
2021/04/26 11:21:43;;;;;;;3.10;2.15;;;;;;;;;;5112139;28;20028;-81
2021/04/26 11:24:15;;;;;;;3.83;2.10;;;;;;;;;;5116512;28;20088;-82
2021/04/26 11:26:41;;;;;;;44.88;23.20;;;;;;;;;;5104805;27;20064;-83
2021/04/26 11:29:11;;;;;;;5.75;1.67;;;;;;;;;;5084714;28;20034;-81
2021/04/26 11:31:44;;;;;;;4.00;1.60;;;;;;;;;;5100011;28;20035;-81
2021/04/26 11:34:17;;;;;;;4.90;2.37;;;;;;;;;;5115470;27;20024;-82
2021/04/26 11:37:02;;;;;;;4.35;2.30;;;;;;;;;;5085838;28;20051;-83
2021/04/26 11:39:32;;;;;;;4.50;1.52;;;;;;;;;;5084463;28;20047;-82
2021/04/26 11:41:59;;;;;;;4.50;1.80;;;;;;;;;;5106370;28;20023;-80
2021/04/26 11:44:27;;;;;;;3.20;1.90;;;;;;;;;;5088195;28;20051;-83
2021/04/26 11:46:56;;;;;;;2.47;1.60;;;;;;;;;;5109459;28;20049;-81
2021/04/26 11:49:23;;;;;;;2.97;1.90;;;;;;;;;;5110584;28;20476;-84
2021/04/26 11:51:54;;;;;;;4.93;2.42;;;;;;;;;;5074072;28;20359;-80
2021/04/26 11:54:21;;;;;;;5.90;2.22;;;;;;;;;;5107634;27;20058;-84
2021/04/26 11:57:07;;;;;;;3.25;2.00;;;;;;;;;;5093130;28;20031;-79
2021/04/26 11:59:33;;;;;;;4.40;2.00;;;;;;;;;;5102376;28;20024;-79
2021/04/26 12:01:59;;;;;;;4.28;2.03;;;;;;;;;;5087425;28;20031;-80
2021/04/26 12:04:39;;;;;;;2.30;1.98;;;;;;;;;;5114088;27;20031;-80
2021/04/26 12:07:06;;;;;;;7.00;2.08;;;;;;;;;;5094563;28;20498;-80
2021/04/26 12:09:32;;;;;;;4.90;1.85;;;;;;;;;;5096973;28;20034;-78
2021/04/26 12:12:00;;;;;;;2.75;1.80;;;;;;;;;;5118175;27;20070;-80
2021/04/26 12:14:26;;;;;;;3.50;1.70;;;;;;;;;;5092193;28;20494;-82
2021/04/26 12:16:52;;;;;;;5.38;2.42;;;;;;;;;;5107668;28;20104;-78
2021/04/26 12:19:34;;;;;;;3.60;1.50;;;;;;;;;;5121726;27;20024;-80
2021/04/26 12:22:00;;;;;;;3.95;1.92;;;;;;;;;;5081929;28;20108;-83
2021/04/26 12:24:26;;;;;;;4.18;2.15;;;;;;;;;;5100596;28;20452;-80
2021/04/26 12:26:52;;;;;;;5.30;2.60;;;;;;;;;;5100924;28;20051;-80
2021/04/26 12:29:30;;;;;;;3.42;2.03;;;;;;;;;;5098839;28;20028;-80
2021/04/26 12:32:09;;;;;;;6.78;2.30;;;;;;;;;;5097837;28;20031;-78
2021/04/26 12:34:52;;;;;;;3.95;1.88;;;;;;;;;;5090846;28;20040;-80
2021/04/26 12:37:19;;;;;;;6.88;2.00;;;;;;;;;;5095931;28;20035;-78
2021/04/26 12:39:46;;;;;;;4.82;2.25;;;;;;;;;;5121909;28;20559;-77
2021/04/26 12:42:17;;;;;;;5.18;2.08;;;;;;;;;;5113192;28;20402;-79
2021/04/26 12:44:43;;;;;;;7.93;1.88;;;;;;;;;;5116457;28;20038;-83
2021/04/26 12:47:16;;;;;;;4.18;1.80;;;;;;;;;;5106407;28;20475;-82
2021/04/26 12:49:43;;;;;;;3.03;1.75;;;;;;;;;;5109719;28;20591;-79
2021/04/26 12:52:13;;;;;;;14.88;2.47;;;;;;;;;;5096527;28;20023;-79
2021/04/26 12:54:58;;;;;;;10.15;1.75;;;;;;;;;;5117532;28;20027;-79
2021/04/26 12:57:24;;;;;;;7.53;2.22;;;;;;;;;;5114103;28;20055;-80
2021/04/26 12:59:51;;;;;;;4.78;2.20;;;;;;;;;;5095472;28;20043;-80
2021/04/26 13:02:31;;;;;;;2.67;1.92;;;;;;;;;;5099770;28;20055;-79
2021/04/26 13:04:58;;;;;;;10.45;3.65;;;;;;;;;;5105020;28;20027;-82
2021/04/26 13:07:24;;;;;;;10.30;2.17;;;;;;;;;;5094145;28;20027;-80
2021/04/26 13:10:07;;;;;;;2.55;1.48;;;;;;;;;;5116350;27;20485;-81
2021/04/26 13:12:33;;;;;;;3.97;1.90;;;;;;;;;;5112300;28;20032;-80
2021/04/26 13:15:00;;;;;;;3.97;1.55;;;;;;;;;;5110904;28;20051;-82
2021/04/26 13:17:36;;;;;;;2.25;1.65;;;;;;;;;;5103890;28;20498;-78
2021/04/26 13:20:21;;;;;;;3.38;1.50;;;;;;;;;;5094179;28;20123;-80
2021/04/26 13:22:47;;;;;;;3.25;1.45;;;;;;;;;;5103749;28;20070;-83
2021/04/26 13:25:14;;;;;;;2.00;1.60;;;;;;;;;;5102434;28;20032;-81
2021/04/26 13:27:47;;;;;;;2.78;1.48;;;;;;;;;;5104095;28;20102;-79
2021/04/26 13:30:15;;;;;;;3.85;1.50;;;;;;;;;;5092242;28;21521;-82
2021/04/26 13:32:42;;;;;;;2.70;1.42;;;;;;;;;;5093857;28;20513;-81
2021/04/26 13:35:08;;;;;;;8.93;1.40;;;;;;;;;;5100798;27;20043;-79
2021/04/26 13:37:44;;;;;;;3.00;1.20;;;;;;;;;;5108404;27;20047;-79
2021/04/26 13:40:11;;;;;;;6.00;1.70;;;;;;;;;;5117131;28;20120;-79
2021/04/26 13:42:37;;;;;;;6.57;1.70;;;;;;;;;;5106922;27;20069;-77
2021/04/26 13:45:03;;;;;;;3.45;1.75;;;;;;;;;;5090996;27;20027;-79
2021/04/26 13:47:29;;;;;;;3.97;1.70;;;;;;;;;;5097520;27;20510;-79
2021/04/26 13:49:56;;;;;;;5.13;1.65;;;;;;;;;;5082353;28;20039;-78
2021/04/26 13:52:22;;;;;;;3.42;1.70;;;;;;;;;;5111720;28;20074;-77
2021/04/26 13:54:48;;;;;;;4.18;1.38;;;;;;;;;;5114383;27;20063;-77
2021/04/26 13:57:14;;;;;;;5.53;2.10;;;;;;;;;;5094600;28;20063;-77
2021/04/26 13:59:40;;;;;;;7.07;2.05;;;;;;;;;;5111205;28;20069;-78
2021/04/26 14:02:06;;;;;;;4.20;2.10;;;;;;;;;;5111186;27;20065;-80
2021/04/26 14:04:34;;;;;;;8.32;2.70;;;;;;;;;;5109012;28;20106;-79
2021/04/26 14:07:00;;;;;;;5.82;3.50;;;;;;;;;;5109935;28;20035;-80
2021/04/26 14:09:26;;;;;;;4.90;2.67;;;;;;;;;;5112850;28;20032;-78
2021/04/26 14:11:53;;;;;;;5.45;2.00;;;;;;;;;;5089173;28;21472;-80
2021/04/26 14:14:19;;;;;;;3.33;2.50;;;;;;;;;;5096019;28;20087;-76
2021/04/26 14:16:46;;;;;;;5.82;2.42;;;;;;;;;;5099164;28;20032;-76
2021/04/26 14:19:12;;;;;;;6.95;3.45;;;;;;;;;;5113432;28;20052;-76
2021/04/26 14:21:38;;;;;;;6.55;2.70;;;;;;;;;;5096305;27;20085;-76
2021/04/26 14:24:05;;;;;;;6.57;2.20;;;;;;;;;;5089631;28;20036;-76
2021/04/26 14:26:31;;;;;;;5.97;2.30;;;;;;;;;;5088258;27;20039;-77
2021/04/26 14:28:57;;;;;;;13.02;2.72;;;;;;;;;;5103344;27;20028;-76
2021/04/26 14:31:23;;;;;;;5.65;2.70;;;;;;;;;;5097799;27;20035;-77
2021/04/26 14:33:49;;;;;;;3.88;2.30;;;;;;;;;;5079540;28;20028;-77
2021/04/26 14:36:15;;;;;;;8.23;3.20;;;;;;;;;;5110313;27;20062;-76
2021/04/26 14:38:41;;;;;;;6.15;3.72;;;;;;;;;;5105885;28;20031;-76
2021/04/26 14:41:07;;;;;;;5.38;2.72;;;;;;;;;;5076019;28;20036;-76
2021/04/26 14:43:35;;;;;;;5.93;3.05;;;;;;;;;;5095077;28;20034;-76
2021/04/26 14:46:01;;;;;;;4.00;2.50;;;;;;;;;;5099501;28;20102;-78
2021/04/26 14:48:27;;;;;;;3.65;2.35;;;;;;;;;;5080340;28;20084;-77